Time;durP1;ratioP1;P1;durP2;ratioP2;P2;SDS_P1;SDS_P2;PMS_P1;PMS_P2;Temp;Humidity;BMP_temperature;BMP_pressure;BME280_temperature;BME280_humidity;BME280_pressure;Samples;Min_cycle;Max_cycle;Signal;HPM_P1;HPM_P2
2023/09/12 04:25:21;;;;;;;1.08;0.70;;;;;;;;;;5100060;27;20212;-81
2023/09/12 04:27:47;;;;;;;2.05;1.45;;;;;;;;;;5076780;28;20461;-81
2023/09/12 04:30:12;;;;;;;2.15;0.98;;;;;;;;;;5075825;28;21074;-81
2023/09/12 04:32:38;;;;;;;0.40;0.40;;;;;;;;;;5077129;28;20028;-81
2023/09/12 04:35:04;;;;;;;0.80;0.70;;;;;;;;;;5071798;28;20048;-80
2023/09/12 04:37:29;;;;;;;0.93;0.77;;;;;;;;;;5080721;28;20036;-80
2023/09/12 04:40:12;;;;;;;4.97;1.38;;;;;;;;;;5078746;28;20029;-80
2023/09/12 04:42:37;;;;;;;0.60;0.60;;;;;;;;;;5069493;28;20037;-84
2023/09/12 04:45:03;;;;;;;1.60;1.15;;;;;;;;;;5075987;28;20021;-81
2023/09/12 04:47:29;;;;;;;0.35;0.35;;;;;;;;;;5071271;28;20111;-82
2023/09/12 04:49:54;;;;;;;1.70;1.20;;;;;;;;;;5077307;28;20025;-81
2023/09/12 04:52:19;;;;;;;0.73;0.60;;;;;;;;;;5076745;28;20127;-81
2023/09/12 04:54:45;;;;;;;0.55;0.55;;;;;;;;;;5078410;28;21814;-81
2023/09/12 04:57:10;;;;;;;1.08;0.82;;;;;;;;;;5077432;28;20504;-80
2023/09/12 04:59:36;;;;;;;0.50;0.50;;;;;;;;;;5073852;28;20036;-81
2023/09/12 05:02:01;;;;;;;1.90;1.23;;;;;;;;;;5073379;28;20035;-82
2023/09/12 05:04:27;;;;;;;0.82;0.60;;;;;;;;;;5079036;28;20029;-81
2023/09/12 05:06:53;;;;;;;0.68;0.63;;;;;;;;;;5080456;28;20047;-81
2023/09/12 05:09:18;;;;;;;0.75;0.57;;;;;;;;;;5075690;28;20032;-80
2023/09/12 05:11:44;;;;;;;1.73;1.10;;;;;;;;;;5080671;28;20067;-79
2023/09/12 05:14:09;;;;;;;0.95;0.70;;;;;;;;;;5079874;28;20028;-79
2023/09/12 05:16:35;;;;;;;2.17;1.55;;;;;;;;;;5078745;28;20107;-81
2023/09/12 05:19:00;;;;;;;1.55;1.08;;;;;;;;;;5077651;28;20036;-82
2023/09/12 05:21:25;;;;;;;0.82;0.80;;;;;;;;;;5072832;28;20115;-81
2023/09/12 05:23:51;;;;;;;2.50;1.58;;;;;;;;;;5085109;28;20043;-82
2023/09/12 05:26:16;;;;;;;0.90;0.90;;;;;;;;;;5095709;28;20024;-81
2023/09/12 05:28:42;;;;;;;2.25;1.67;;;;;;;;;;5095562;28;20024;-81
2023/09/12 05:31:07;;;;;;;0.73;0.73;;;;;;;;;;5096445;28;20130;-83
2023/09/12 05:33:33;;;;;;;2.28;1.23;;;;;;;;;;5076017;28;20024;-82
2023/09/12 05:35:58;;;;;;;1.40;1.23;;;;;;;;;;5068368;28;20530;-83
2023/09/12 05:38:23;;;;;;;1.70;1.42;;;;;;;;;;5086334;28;20103;-83
2023/09/12 05:40:49;;;;;;;2.72;2.05;;;;;;;;;;5068857;28;20027;-82
2023/09/12 05:43:16;;;;;;;3.28;1.65;;;;;;;;;;5087536;28;20028;-83
2023/09/12 05:45:41;;;;;;;0.65;0.63;;;;;;;;;;5083562;28;20070;-84
2023/09/12 05:48:07;;;;;;;3.28;1.88;;;;;;;;;;5067702;28;20468;-83
2023/09/12 05:50:32;;;;;;;2.47;1.63;;;;;;;;;;5081894;28;20021;-85
2023/09/12 05:52:57;;;;;;;2.05;1.02;;;;;;;;;;5069338;28;20031;-83
2023/09/12 05:55:24;;;;;;;1.77;1.42;;;;;;;;;;5082702;28;20024;-85
2023/09/12 05:57:54;;;;;;;1.55;1.45;;;;;;;;;;5083271;28;20104;-86
2023/09/12 06:00:20;;;;;;;1.88;1.35;;;;;;;;;;5070192;28;20039;-86
2023/09/12 06:02:46;;;;;;;3.60;1.63;;;;;;;;;;5083320;28;20025;-86
2023/09/12 06:05:12;;;;;;;1.90;1.70;;;;;;;;;;5066771;28;20030;-86
2023/09/12 06:07:40;;;;;;;12.43;1.58;;;;;;;;;;5070636;28;20036;-85
2023/09/12 06:10:06;;;;;;;2.22;1.60;;;;;;;;;;5092416;28;20028;-85
2023/09/12 06:12:32;;;;;;;2.80;1.35;;;;;;;;;;5089200;28;20107;-88
2023/09/12 06:15:01;;;;;;;4.97;1.88;;;;;;;;;;5085872;28;20488;-86
2023/09/12 06:17:26;;;;;;;2.00;1.42;;;;;;;;;;5084276;28;20029;-87
2023/09/12 06:19:52;;;;;;;1.30;0.98;;;;;;;;;;5085524;28;20081;-86
2023/09/12 06:22:17;;;;;;;3.33;1.80;;;;;;;;;;5066027;28;20035;-86
2023/09/12 06:24:44;;;;;;;1.30;1.20;;;;;;;;;;5069462;28;20482;-86
2023/09/12 06:27:12;;;;;;;6.28;1.58;;;;;;;;;;5084474;28;20414;-85
2023/09/12 06:29:37;;;;;;;2.25;1.92;;;;;;;;;;5084370;28;20051;-86
2023/09/12 06:32:03;;;;;;;3.50;1.30;;;;;;;;;;5083155;28;20056;-86
2023/09/12 06:34:29;;;;;;;3.08;1.88;;;;;;;;;;5066016;28;20115;-85
2023/09/12 06:36:54;;;;;;;2.35;1.63;;;;;;;;;;5060985;28;20028;-86
2023/09/12 06:39:20;;;;;;;2.72;1.15;;;;;;;;;;5086074;28;20025;-87
2023/09/12 06:41:45;;;;;;;7.50;1.95;;;;;;;;;;5087987;28;20391;-85
2023/09/12 06:44:10;;;;;;;1.75;1.52;;;;;;;;;;5081928;28;20028;-85
2023/09/12 06:46:37;;;;;;;3.55;1.52;;;;;;;;;;5070911;28;20032;-85
2023/09/12 06:49:03;;;;;;;4.15;2.28;;;;;;;;;;5066761;28;20027;-84
2023/09/12 06:51:28;;;;;;;2.10;1.52;;;;;;;;;;5083436;28;20400;-84
2023/09/12 06:53:54;;;;;;;2.35;1.52;;;;;;;;;;5079825;28;20024;-85
2023/09/12 06:56:21;;;;;;;2.53;1.55;;;;;;;;;;5085372;28;20020;-85
2023/09/12 06:58:47;;;;;;;2.78;2.05;;;;;;;;;;5088616;28;20032;-85
2023/09/12 07:01:12;;;;;;;1.55;1.45;;;;;;;;;;5064203;28;20027;-85
2023/09/12 07:03:38;;;;;;;1.17;1.02;;;;;;;;;;5071276;28;20026;-85
2023/09/12 07:06:05;;;;;;;1.13;0.98;;;;;;;;;;5060685;28;20031;-84
2023/09/12 07:08:31;;;;;;;0.93;0.88;;;;;;;;;;5079815;28;20042;-84
2023/09/12 07:10:57;;;;;;;1.63;1.52;;;;;;;;;;5064418;28;20382;-83
2023/09/12 07:13:23;;;;;;;1.95;1.20;;;;;;;;;;5080863;28;20036;-85
2023/09/12 07:15:50;;;;;;;11.32;1.90;;;;;;;;;;5076568;28;20100;-84
2023/09/12 07:18:16;;;;;;;1.40;1.25;;;;;;;;;;5063057;28;20081;-84
2023/09/12 07:20:41;;;;;;;1.67;1.23;;;;;;;;;;5069763;28;20032;-83
2023/09/12 07:23:07;;;;;;;3.20;1.80;;;;;;;;;;5077868;28;20116;-84
2023/09/12 07:25:40;;;;;;;2.47;1.85;;;;;;;;;;5084392;28;20024;-84
2023/09/12 07:28:06;;;;;;;1.85;1.63;;;;;;;;;;5070817;28;20486;-84
2023/09/12 07:30:32;;;;;;;2.78;2.15;;;;;;;;;;5063211;28;20056;-84
2023/09/12 07:32:57;;;;;;;3.53;1.35;;;;;;;;;;5061827;28;20158;-82
2023/09/12 07:35:23;;;;;;;3.22;1.50;;;;;;;;;;5058460;28;20055;-84
2023/09/12 07:37:49;;;;;;;1.13;1.02;;;;;;;;;;5059432;28;20028;-84
2023/09/12 07:40:15;;;;;;;1.90;1.35;;;;;;;;;;5080010;28;20481;-84
2023/09/12 07:42:41;;;;;;;1.80;1.48;;;;;;;;;;5090333;28;20035;-84
2023/09/12 07:45:07;;;;;;;2.78;1.45;;;;;;;;;;5062450;28;20028;-84
2023/09/12 07:47:33;;;;;;;2.42;1.73;;;;;;;;;;5079914;28;20376;-83
2023/09/12 07:50:00;;;;;;;2.05;1.50;;;;;;;;;;5077357;28;20027;-84
2023/09/12 07:52:29;;;;;;;2.15;1.67;;;;;;;;;;5061875;28;20039;-83
2023/09/12 07:55:00;;;;;;;1.95;1.55;;;;;;;;;;5078047;28;20043;-83
2023/09/12 07:57:25;;;;;;;2.42;1.40;;;;;;;;;;5064121;28;20107;-84
2023/09/12 07:59:51;;;;;;;2.72;1.88;;;;;;;;;;5055812;28;20452;-84
2023/09/12 08:02:16;;;;;;;2.35;1.48;;;;;;;;;;5085215;28;20032;-83
2023/09/12 08:04:42;;;;;;;1.85;1.13;;;;;;;;;;5076921;28;20107;-84
2023/09/12 08:07:07;;;;;;;4.40;1.80;;;;;;;;;;5079107;28;20111;-85
2023/09/12 08:10:05;;;;;;;1.95;1.48;;;;;;;;;;5079302;28;20054;-84
2023/09/12 08:12:30;;;;;;;1.30;1.13;;;;;;;;;;5037396;28;20086;-84
2023/09/12 08:14:56;;;;;;;2.58;1.73;;;;;;;;;;5057076;28;20040;-83
2023/09/12 08:17:22;;;;;;;5.28;2.15;;;;;;;;;;5081373;28;20487;-84
2023/09/12 08:19:48;;;;;;;1.60;1.13;;;;;;;;;;5085262;28;20677;-84
2023/09/12 08:22:14;;;;;;;6.38;1.80;;;;;;;;;;5059239;28;20474;-85
2023/09/12 08:24:40;;;;;;;12.52;1.58;;;;;;;;;;5041877;28;20040;-84
2023/09/12 08:27:06;;;;;;;3.30;1.52;;;;;;;;;;5039303;28;20029;-84
2023/09/12 08:29:32;;;;;;;2.75;1.70;;;;;;;;;;5031158;28;20045;-84
2023/09/12 08:31:58;;;;;;;1.40;1.27;;;;;;;;;;5038241;28;20021;-86
2023/09/12 08:34:24;;;;;;;3.33;1.80;;;;;;;;;;5036699;28;20076;-83
2023/09/12 08:36:50;;;;;;;2.35;1.42;;;;;;;;;;5032697;28;20419;-85
2023/09/12 08:39:17;;;;;;;8.25;1.65;;;;;;;;;;5044453;28;20028;-84
2023/09/12 08:41:43;;;;;;;2.50;1.50;;;;;;;;;;5033478;28;20033;-84
2023/09/12 08:44:09;;;;;;;1.45;1.00;;;;;;;;;;5035491;28;20358;-84
2023/09/12 08:46:36;;;;;;;1.15;0.80;;;;;;;;;;5040656;28;20026;-85
2023/09/12 08:49:04;;;;;;;1.75;1.33;;;;;;;;;;5033804;28;20029;-84
2023/09/12 08:51:32;;;;;;;1.75;1.25;;;;;;;;;;5043322;28;20107;-83
2023/09/12 08:53:57;;;;;;;3.85;2.08;;;;;;;;;;5033221;28;20025;-83
2023/09/12 08:56:24;;;;;;;1.58;1.20;;;;;;;;;;5043846;28;20021;-84
2023/09/12 08:58:50;;;;;;;1.20;1.10;;;;;;;;;;5035362;28;20036;-85
2023/09/12 09:01:18;;;;;;;1.58;1.10;;;;;;;;;;5040516;28;20063;-83
2023/09/12 09:03:44;;;;;;;4.80;1.60;;;;;;;;;;5047455;28;20047;-85
2023/09/12 09:06:11;;;;;;;2.40;1.50;;;;;;;;;;5043656;28;20076;-84
2023/09/12 09:08:37;;;;;;;1.10;1.00;;;;;;;;;;5036073;28;20025;-84
2023/09/12 09:11:04;;;;;;;1.52;1.10;;;;;;;;;;5042203;28;20476;-85
2023/09/12 09:13:29;;;;;;;1.67;1.15;;;;;;;;;;5038316;28;20029;-84
2023/09/12 09:16:21;;;;;;;1.60;1.10;;;;;;;;;;5040440;28;20035;-84
2023/09/12 09:19:01;;;;;;;0.85;0.85;;;;;;;;;;5045315;28;20024;-84
2023/09/12 09:21:30;;;;;;;4.50;1.30;;;;;;;;;;5050127;28;20025;-84
2023/09/12 09:23:58;;;;;;;3.53;1.17;;;;;;;;;;5056675;28;20124;-85
2023/09/12 09:26:24;;;;;;;1.30;1.20;;;;;;;;;;5055862;28;20381;-85
2023/09/12 09:29:03;;;;;;;1.30;1.00;;;;;;;;;;5064362;28;20070;-85
2023/09/12 09:31:28;;;;;;;6.53;1.25;;;;;;;;;;5073452;28;20096;-87
2023/09/12 09:33:55;;;;;;;0.80;0.80;;;;;;;;;;5071720;28;20041;-86
2023/09/12 09:36:20;;;;;;;1.00;0.90;;;;;;;;;;5071140;28;20055;-84
2023/09/12 09:38:46;;;;;;;1.60;1.08;;;;;;;;;;5077291;28;20036;-85
2023/09/12 09:41:12;;;;;;;1.77;1.40;;;;;;;;;;5071727;28;20473;-84
2023/09/12 09:43:37;;;;;;;1.30;1.13;;;;;;;;;;5065556;28;20468;-83
2023/09/12 09:46:03;;;;;;;2.10;1.48;;;;;;;;;;5063472;28;20105;-85
2023/09/12 09:48:30;;;;;;;1.23;1.13;;;;;;;;;;5063066;28;20032;-86
2023/09/12 09:51:03;;;;;;;0.98;0.90;;;;;;;;;;5069672;28;20029;-85
2023/09/12 09:53:32;;;;;;;3.60;1.55;;;;;;;;;;5069734;28;20492;-83
2023/09/12 09:56:12;;;;;;;1.58;1.23;;;;;;;;;;5067373;28;20039;-81
2023/09/12 09:58:51;;;;;;;2.45;1.85;;;;;;;;;;5063694;28;20036;-85
2023/09/12 10:01:22;;;;;;;1.40;1.00;;;;;;;;;;5062645;28;20036;-86
2023/09/12 10:03:49;;;;;;;0.82;0.80;;;;;;;;;;5068033;28;20307;-79
2023/09/12 10:06:19;;;;;;;2.17;1.00;;;;;;;;;;5059267;28;20028;-85
2023/09/12 10:08:46;;;;;;;;;;;;;;;;;;5066761;28;20036;-85
2023/09/12 10:11:15;;;;;;;0.45;0.45;;;;;;;;;;5069260;28;19916;-81
2023/09/12 10:13:43;;;;;;;;;;;;;;;;;;5066547;28;20055;-84
2023/09/12 10:16:09;;;;;;;1.85;0.88;;;;;;;;;;5068807;28;19924;-85
2023/09/12 10:18:48;;;;;;;1.20;1.05;;;;;;;;;;5072953;28;20039;-88
2023/09/12 10:21:20;;;;;;;1.27;1.08;;;;;;;;;;5063420;28;20028;-81
2023/09/12 10:23:48;;;;;;;2.25;1.45;;;;;;;;;;5074220;28;20160;-83
2023/09/12 10:26:14;;;;;;;1.55;0.85;;;;;;;;;;5083544;28;20185;-82
2023/09/12 10:28:43;;;;;;;2.35;1.20;;;;;;;;;;5063726;28;20027;-85
2023/09/12 10:31:11;;;;;;;1.63;1.20;;;;;;;;;;5086185;28;20028;-86
2023/09/12 10:33:37;;;;;;;0.75;0.63;;;;;;;;;;5070823;28;20036;-87
2023/09/12 10:36:04;;;;;;;4.05;1.23;;;;;;;;;;5056988;28;20434;-88
2023/09/12 10:38:33;;;;;;;2.60;1.33;;;;;;;;;;5085909;28;20032;-84
2023/09/12 10:41:00;;;;;;;1.35;1.20;;;;;;;;;;5069957;28;20460;-86
2023/09/12 10:43:28;;;;;;;1.63;0.88;;;;;;;;;;5086475;28;20020;-86
2023/09/12 10:45:54;;;;;;;1.63;1.42;;;;;;;;;;5066201;28;20028;-85
2023/09/12 10:48:20;;;;;;;2.60;1.30;;;;;;;;;;5091287;28;20030;-87
2023/09/12 10:50:46;;;;;;;0.77;0.63;;;;;;;;;;5069562;28;20044;-83
2023/09/12 10:53:14;;;;;;;0.77;0.70;;;;;;;;;;5086011;28;20024;-80
2023/09/12 10:55:39;;;;;;;0.40;0.40;;;;;;;;;;5085469;28;20031;-79
2023/09/12 10:58:10;;;;;;;1.00;0.90;;;;;;;;;;5088741;28;20020;-81
2023/09/12 11:00:38;;;;;;;9.90;1.75;;;;;;;;;;5067085;28;20025;-79
2023/09/12 11:03:28;;;;;;;1.15;0.90;;;;;;;;;;5084718;28;20115;-79
2023/09/12 11:05:55;;;;;;;2.58;1.13;;;;;;;;;;5089186;28;20464;-79
2023/09/12 11:08:22;;;;;;;1.00;0.90;;;;;;;;;;5092498;28;20031;-78
2023/09/12 11:11:19;;;;;;;1.83;1.25;;;;;;;;;;5066256;28;20092;-79
2023/09/12 11:13:45;;;;;;;0.65;0.65;;;;;;;;;;5069857;28;20028;-78
2023/09/12 11:16:17;;;;;;;1.60;1.50;;;;;;;;;;5095074;28;20367;-78
2023/09/12 11:19:23;;;;;;;1.40;0.90;;;;;;;;;;5084266;28;20036;-79
2023/09/12 11:21:50;;;;;;;2.15;0.90;;;;;;;;;;5080290;28;20029;-79
2023/09/12 11:24:17;;;;;;;0.88;0.80;;;;;;;;;;5089226;28;20543;-79
2023/09/12 11:26:59;;;;;;;1.95;0.60;;;;;;;;;;5091319;28;20081;-79
2023/09/12 11:29:36;;;;;;;1.23;0.80;;;;;;;;;;5092269;28;20039;-78
2023/09/12 11:32:05;;;;;;;1.40;0.90;;;;;;;;;;5087520;28;20027;-80
2023/09/12 11:34:37;;;;;;;1.20;0.95;;;;;;;;;;5064427;28;20551;-80
2023/09/12 11:37:04;;;;;;;1.50;0.80;;;;;;;;;;5092717;28;20035;-79
2023/09/12 11:39:31;;;;;;;1.30;0.90;;;;;;;;;;5087442;28;20054;-80
2023/09/12 11:41:59;;;;;;;1.13;0.82;;;;;;;;;;5073655;28;20020;-79
2023/09/12 11:44:30;;;;;;;0.68;0.65;;;;;;;;;;5091064;28;20462;-78
2023/09/12 11:46:58;;;;;;;1.17;0.68;;;;;;;;;;5090182;28;20149;-80
2023/09/12 11:49:25;;;;;;;1.52;1.00;;;;;;;;;;5073098;28;20084;-79
2023/09/12 11:51:53;;;;;;;1.00;0.88;;;;;;;;;;5069256;28;20031;-79
2023/09/12 11:54:26;;;;;;;1.75;1.20;;;;;;;;;;5070817;28;20487;-78
2023/09/12 11:56:56;;;;;;;1.13;0.90;;;;;;;;;;5090546;28;20026;-80
2023/09/12 11:59:23;;;;;;;1.75;0.80;;;;;;;;;;5061371;28;20020;-81
2023/09/12 12:01:49;;;;;;;1.50;1.00;;;;;;;;;;5067898;28;20476;-80
2023/09/12 12:04:14;;;;;;;1.77;0.80;;;;;;;;;;5069224;28;20048;-83
2023/09/12 12:06:41;;;;;;;1.05;0.90;;;;;;;;;;5089869;28;20089;-83
2023/09/12 12:09:06;;;;;;;2.67;1.05;;;;;;;;;;5084294;28;20083;-80
2023/09/12 12:11:32;;;;;;;1.77;0.57;;;;;;;;;;5083769;28;20029;-81
2023/09/12 12:13:58;;;;;;;2.17;1.15;;;;;;;;;;5062304;28;20028;-80
2023/09/12 12:16:25;;;;;;;1.63;1.17;;;;;;;;;;5064568;28;20471;-79
2023/09/12 12:23:32;;;;;;;2.83;1.30;;;;;;;;;;5085476;27;20409;-79
2023/09/12 12:26:08;;;;;;;1.20;1.10;;;;;;;;;;5088550;28;20028;-79
2023/09/12 12:28:35;;;;;;;0.98;0.70;;;;;;;;;;5083941;28;20525;-79
2023/09/12 12:31:00;;;;;;;1.23;0.60;;;;;;;;;;5084891;28;20032;-79
2023/09/12 12:33:26;;;;;;;1.20;1.10;;;;;;;;;;5068996;28;20085;-80
2023/09/12 12:36:18;;;;;;;1.42;1.20;;;;;;;;;;5086259;28;20028;-78
2023/09/12 12:38:46;;;;;;;3.92;1.75;;;;;;;;;;5081545;28;20507;-79
2023/09/12 12:41:14;;;;;;;3.08;1.85;;;;;;;;;;5081082;28;20452;-79
2023/09/12 12:43:41;;;;;;;2.67;1.48;;;;;;;;;;5080247;28;20090;-80
2023/09/12 12:46:11;;;;;;;2.45;1.13;;;;;;;;;;5068637;28;20032;-81
2023/09/12 12:48:36;;;;;;;3.20;2.08;;;;;;;;;;5083909;28;20103;-81
2023/09/12 12:51:16;;;;;;;4.90;2.28;;;;;;;;;;5081322;28;20103;-80
2023/09/12 12:53:50;;;;;;;3.85;2.05;;;;;;;;;;5086482;28;20031;-81
2023/09/12 12:56:18;;;;;;;1.13;0.98;;;;;;;;;;5088466;28;20455;-79
2023/09/12 12:58:51;;;;;;;2.70;1.65;;;;;;;;;;5060258;28;20038;-83
2023/09/12 13:01:16;;;;;;;1.70;1.23;;;;;;;;;;5063783;28;20032;-82
2023/09/12 13:03:42;;;;;;;3.30;1.98;;;;;;;;;;5061072;28;20383;-81
2023/09/12 13:06:13;;;;;;;3.28;1.75;;;;;;;;;;5088427;28;20062;-79
2023/09/12 13:08:40;;;;;;;2.38;1.10;;;;;;;;;;5095250;28;20089;-81
2023/09/12 13:11:06;;;;;;;1.67;1.58;;;;;;;;;;5074405;28;20052;-80
2023/09/12 13:13:31;;;;;;;3.67;1.73;;;;;;;;;;5088634;28;20413;-81
2023/09/12 13:15:57;;;;;;;1.13;0.88;;;;;;;;;;5070654;28;20421;-81
2023/09/12 13:18:22;;;;;;;2.20;1.35;;;;;;;;;;5074089;28;20548;-81
2023/09/12 13:20:48;;;;;;;1.70;0.93;;;;;;;;;;5085961;28;20028;-83
2023/09/12 13:23:13;;;;;;;1.35;0.95;;;;;;;;;;5051925;28;20126;-81
2023/09/12 13:25:39;;;;;;;2.03;1.27;;;;;;;;;;5043387;28;20087;-81
2023/09/12 13:28:04;;;;;;;1.65;1.10;;;;;;;;;;5049547;28;20024;-82
2023/09/12 13:30:30;;;;;;;1.55;1.05;;;;;;;;;;5048991;28;20031;-85
2023/09/12 13:32:55;;;;;;;0.82;0.73;;;;;;;;;;5036678;28;20029;-84
2023/09/12 13:35:21;;;;;;;2.35;1.33;;;;;;;;;;5025569;28;20040;-81
2023/09/12 13:37:46;;;;;;;1.08;0.82;;;;;;;;;;5029605;28;20470;-82
2023/09/12 13:40:11;;;;;;;2.05;1.30;;;;;;;;;;5034321;28;20036;-82
2023/09/12 13:42:37;;;;;;;2.20;1.13;;;;;;;;;;5027877;28;20030;-83
2023/09/12 13:45:03;;;;;;;1.40;1.10;;;;;;;;;;5024813;28;20037;-82
2023/09/12 13:47:28;;;;;;;1.23;0.93;;;;;;;;;;5029631;28;20505;-81
2023/09/12 13:49:54;;;;;;;2.22;1.27;;;;;;;;;;5029060;28;20025;-82
2023/09/12 13:52:23;;;;;;;1.15;0.93;;;;;;;;;;5028262;28;20083;-80
2023/09/12 13:54:48;;;;;;;2.90;1.58;;;;;;;;;;5028030;28;20021;-82
2023/09/12 13:57:15;;;;;;;2.45;1.30;;;;;;;;;;5026293;28;20041;-82
2023/09/12 13:59:41;;;;;;;2.45;1.10;;;;;;;;;;5029663;28;20044;-81
2023/09/12 14:02:07;;;;;;;2.25;1.75;;;;;;;;;;5029540;28;20051;-81
2023/09/12 14:04:32;;;;;;;1.55;1.13;;;;;;;;;;5038898;28;20041;-81
2023/09/12 14:06:57;;;;;;;4.35;1.70;;;;;;;;;;5027355;28;20030;-83
2023/09/12 14:09:23;;;;;;;1.80;1.38;;;;;;;;;;5025273;28;20047;-80
2023/09/12 14:11:48;;;;;;;1.55;1.08;;;;;;;;;;5035107;28;20053;-82
2023/09/12 14:14:14;;;;;;;1.85;1.00;;;;;;;;;;5032345;28;20021;-80
2023/09/12 14:16:39;;;;;;;3.38;2.05;;;;;;;;;;5039007;28;20482;-82
2023/09/12 14:19:04;;;;;;;1.92;0.95;;;;;;;;;;5032180;28;20025;-80
2023/09/12 14:21:30;;;;;;;3.10;1.60;;;;;;;;;;5049636;28;20356;-83
2023/09/12 14:23:57;;;;;;;1.25;1.15;;;;;;;;;;5076969;28;20385;-84
2023/09/12 14:26:23;;;;;;;1.73;1.17;;;;;;;;;;5053169;28;20040;-81
2023/09/12 14:28:49;;;;;;;1.63;1.02;;;;;;;;;;5054324;28;20028;-81
2023/09/12 14:31:15;;;;;;;2.05;1.35;;;;;;;;;;5069439;28;20016;-81
2023/09/12 14:33:41;;;;;;;2.47;1.70;;;;;;;;;;5071783;28;20430;-81
2023/09/12 14:36:08;;;;;;;1.58;1.13;;;;;;;;;;5072073;28;20020;-81
2023/09/12 14:38:34;;;;;;;2.00;1.45;;;;;;;;;;5072097;28;20025;-81
2023/09/12 14:41:00;;;;;;;2.58;1.50;;;;;;;;;;5080276;28;20443;-81
2023/09/12 14:43:27;;;;;;;1.02;0.82;;;;;;;;;;5079000;28;20417;-81
2023/09/12 14:45:54;;;;;;;1.27;0.98;;;;;;;;;;5078653;28;20383;-81
2023/09/12 14:48:19;;;;;;;3.13;1.60;;;;;;;;;;5058403;28;20025;-81
2023/09/12 14:50:48;;;;;;;1.13;0.80;;;;;;;;;;5074759;28;20035;-81
2023/09/12 14:53:15;;;;;;;1.55;1.05;;;;;;;;;;5074159;28;20065;-81
2023/09/12 14:55:41;;;;;;;1.05;0.93;;;;;;;;;;5081017;28;20479;-81
2023/09/12 14:58:07;;;;;;;2.15;1.17;;;;;;;;;;5070799;28;20020;-81
2023/09/12 15:00:33;;;;;;;3.08;1.20;;;;;;;;;;5079041;28;20031;-81
2023/09/12 15:02:59;;;;;;;2.15;1.17;;;;;;;;;;5084909;28;20043;-81
2023/09/12 15:05:25;;;;;;;2.03;1.23;;;;;;;;;;5087523;28;20039;-83
2023/09/12 15:07:50;;;;;;;1.88;1.35;;;;;;;;;;5071814;28;20028;-84
2023/09/12 15:10:17;;;;;;;1.00;0.85;;;;;;;;;;5064053;28;20032;-82
2023/09/12 15:12:42;;;;;;;7.43;1.10;;;;;;;;;;5080360;28;20025;-82
2023/09/12 15:15:08;;;;;;;2.25;1.55;;;;;;;;;;5057644;28;20468;-81
2023/09/12 15:17:34;;;;;;;1.75;1.00;;;;;;;;;;5070555;28;20082;-81
2023/09/12 15:19:59;;;;;;;1.55;1.25;;;;;;;;;;5054374;28;20029;-82
2023/09/12 15:22:24;;;;;;;1.95;1.30;;;;;;;;;;5071118;28;20136;-82
2023/09/12 15:24:50;;;;;;;1.65;1.15;;;;;;;;;;5079773;28;20028;-82
2023/09/12 15:27:15;;;;;;;2.08;0.80;;;;;;;;;;5055259;28;20060;-81
2023/09/12 15:29:40;;;;;;;2.00;1.25;;;;;;;;;;5056664;28;20044;-84
2023/09/12 15:32:06;;;;;;;2.70;1.67;;;;;;;;;;5073545;28;20532;-84
2023/09/12 15:34:32;;;;;;;3.50;1.58;;;;;;;;;;5085542;28;20064;-81
2023/09/12 15:37:12;;;;;;;1.98;1.10;;;;;;;;;;5065221;28;20048;-82
2023/09/12 15:39:38;;;;;;;0.93;0.85;;;;;;;;;;5071045;28;20038;-82
2023/09/12 15:42:04;;;;;;;1.13;0.90;;;;;;;;;;5083755;28;20028;-82
2023/09/12 15:44:30;;;;;;;3.17;1.33;;;;;;;;;;5073747;28;20025;-82
2023/09/12 15:46:57;;;;;;;1.00;0.90;;;;;;;;;;5077548;28;20029;-82
2023/09/12 15:49:25;;;;;;;1.58;0.98;;;;;;;;;;5071244;28;20075;-82
2023/09/12 15:51:51;;;;;;;1.20;0.65;;;;;;;;;;5071846;28;20028;-83
2023/09/12 15:54:16;;;;;;;2.15;1.15;;;;;;;;;;5085796;28;20028;-85
2023/09/12 15:56:42;;;;;;;0.80;0.80;;;;;;;;;;5068838;28;20032;-84
2023/09/12 15:59:07;;;;;;;2.85;1.10;;;;;;;;;;5056809;28;20062;-81
2023/09/12 16:01:33;;;;;;;1.25;1.08;;;;;;;;;;5064517;28;20394;-83
2023/09/12 16:03:58;;;;;;;2.47;1.55;;;;;;;;;;5068579;28;20032;-81
2023/09/12 16:06:24;;;;;;;1.02;0.93;;;;;;;;;;5075284;28;20028;-81
2023/09/12 16:08:49;;;;;;;2.80;1.55;;;;;;;;;;5074271;28;20034;-82
2023/09/12 16:11:17;;;;;;;1.13;0.85;;;;;;;;;;5077397;28;20020;-81
2023/09/12 16:13:43;;;;;;;1.52;1.05;;;;;;;;;;5074661;28;20025;-82
2023/09/12 16:16:08;;;;;;;0.40;0.40;;;;;;;;;;5078272;28;20026;-82
2023/09/12 16:18:34;;;;;;;1.58;1.02;;;;;;;;;;5080855;28;20024;-81
2023/09/12 16:21:00;;;;;;;1.17;1.08;;;;;;;;;;5066501;28;20029;-81
2023/09/12 16:23:30;;;;;;;2.20;1.20;;;;;;;;;;5081505;28;20423;-82
2023/09/12 16:25:57;;;;;;;1.42;1.33;;;;;;;;;;5056925;28;20032;-81
2023/09/12 16:28:23;;;;;;;3.85;0.68;;;;;;;;;;5078474;28;20493;-81
2023/09/12 16:30:49;;;;;;;1.48;1.30;;;;;;;;;;5070981;28;20032;-82
2023/09/12 16:33:14;;;;;;;1.17;0.63;;;;;;;;;;5081673;28;20020;-81
2023/09/12 16:35:40;;;;;;;0.63;0.60;;;;;;;;;;5052963;28;20174;-81
2023/09/12 16:38:05;;;;;;;1.05;0.88;;;;;;;;;;5054914;28;20033;-80
2023/09/12 16:40:32;;;;;;;3.08;1.13;;;;;;;;;;5076051;28;20033;-82
2023/09/12 16:42:57;;;;;;;1.45;1.15;;;;;;;;;;5078461;28;20012;-81
2023/09/12 16:45:23;;;;;;;1.33;0.90;;;;;;;;;;5055000;28;20040;-82
2023/09/12 16:47:48;;;;;;;1.50;0.70;;;;;;;;;;5077551;28;20074;-82
2023/09/12 16:50:14;;;;;;;1.85;0.85;;;;;;;;;;5076995;28;20450;-81
2023/09/12 16:52:40;;;;;;;1.88;0.90;;;;;;;;;;5057467;28;20423;-84
2023/09/12 16:55:06;;;;;;;1.88;1.20;;;;;;;;;;5068833;28;20042;-84
2023/09/12 16:57:31;;;;;;;0.52;0.52;;;;;;;;;;5073084;28;20024;-85
2023/09/12 16:59:56;;;;;;;1.50;1.13;;;;;;;;;;5082352;28;20024;-84
2023/09/12 17:02:22;;;;;;;1.30;0.68;;;;;;;;;;5077124;28;20488;-80
2023/09/12 17:04:47;;;;;;;1.00;0.90;;;;;;;;;;5051737;28;20126;-81
2023/09/12 17:07:13;;;;;;;1.35;0.73;;;;;;;;;;5074058;28;20078;-83
2023/09/12 17:09:39;;;;;;;1.35;0.65;;;;;;;;;;5063168;28;20419;-80
2023/09/12 17:12:06;;;;;;;1.85;1.10;;;;;;;;;;5080749;28;20073;-82
2023/09/12 17:14:32;;;;;;;2.25;0.98;;;;;;;;;;5075174;28;20098;-81
2023/09/12 17:16:57;;;;;;;1.23;0.93;;;;;;;;;;5076020;28;20472;-82
2023/09/12 17:19:23;;;;;;;0.95;0.70;;;;;;;;;;5072986;28;20020;-81
2023/09/12 17:21:48;;;;;;;0.82;0.70;;;;;;;;;;5066763;28;20070;-82
2023/09/12 17:24:13;;;;;;;0.85;0.75;;;;;;;;;;5079281;28;20042;-81
2023/09/12 17:26:39;;;;;;;0.50;0.50;;;;;;;;;;5083162;28;20062;-81
2023/09/12 17:29:04;;;;;;;0.88;0.80;;;;;;;;;;5084342;28;20052;-82
2023/09/12 17:31:30;;;;;;;3.05;0.68;;;;;;;;;;5066130;28;20032;-81
2023/09/12 17:33:55;;;;;;;0.82;0.73;;;;;;;;;;5082476;28;20031;-81
2023/09/12 17:36:20;;;;;;;0.77;0.75;;;;;;;;;;5080741;28;20135;-81
2023/09/12 17:38:47;;;;;;;1.00;0.88;;;;;;;;;;5069676;28;20029;-82
2023/09/12 17:41:13;;;;;;;2.75;1.70;;;;;;;;;;5068096;28;20024;-83
2023/09/12 17:43:39;;;;;;;1.50;0.80;;;;;;;;;;5064843;28;20511;-84
2023/09/12 17:46:04;;;;;;;2.58;1.20;;;;;;;;;;5076958;28;20032;-82
2023/09/12 17:48:30;;;;;;;1.85;1.40;;;;;;;;;;5052438;28;20039;-84
2023/09/12 17:50:55;;;;;;;3.65;2.10;;;;;;;;;;5071686;28;20373;-82
2023/09/12 17:53:22;;;;;;;1.90;1.40;;;;;;;;;;5057548;28;20029;-84
2023/09/12 17:55:50;;;;;;;2.55;1.55;;;;;;;;;;5066236;28;20029;-86
2023/09/12 17:58:15;;;;;;;3.22;1.48;;;;;;;;;;5064244;28;20115;-83
2023/09/12 18:00:40;;;;;;;2.47;1.58;;;;;;;;;;5051141;28;20115;-82
2023/09/12 18:03:06;;;;;;;1.17;1.08;;;;;;;;;;5049926;28;20021;-84
